createdAt,value
2023-05-21T00:00:39.547Z,15.52
2023-05-21T00:01:39.558Z,15.51
2023-05-21T00:02:39.615Z,15.48
2023-05-21T00:03:39.588Z,15.49
2023-05-21T00:04:39.511Z,15.49
2023-05-21T00:05:39.542Z,15.48
2023-05-21T00:06:39.495Z,15.45
2023-05-21T00:07:39.489Z,15.46
2023-05-21T00:08:39.459Z,15.43
2023-05-21T00:09:39.446Z,15.45
2023-05-21T00:10:39.445Z,15.45
2023-05-21T00:11:39.450Z,15.43
2023-05-21T00:12:39.463Z,15.43
2023-05-21T00:13:39.414Z,15.43
2023-05-21T00:14:39.424Z,15.42
2023-05-21T00:15:39.415Z,15.42
2023-05-21T00:16:39.505Z,15.42
2023-05-21T00:17:39.416Z,15.39
2023-05-21T00:18:39.382Z,15.38
2023-05-21T00:19:39.350Z,15.38
2023-05-21T00:20:39.335Z,15.38
2023-05-21T00:21:39.372Z,15.38
2023-05-21T00:22:39.329Z,15.33
2023-05-21T00:23:39.311Z,15.31
2023-05-21T00:24:39.302Z,15.31
2023-05-21T00:25:39.295Z,15.33
2023-05-21T00:26:39.327Z,15.33
2023-05-21T00:27:39.284Z,15.35
2023-05-21T00:28:39.328Z,15.33
2023-05-21T00:29:39.238Z,15.31
2023-05-21T00:30:39.236Z,15.30
2023-05-21T00:31:39.290Z,15.27
2023-05-21T00:32:39.237Z,15.27
2023-05-21T00:33:39.203Z,15.28
2023-05-21T00:34:39.182Z,15.28
2023-05-21T00:35:39.196Z,15.24
2023-05-21T00:36:39.180Z,15.23
2023-05-21T00:37:39.175Z,15.23
2023-05-21T00:38:39.150Z,15.23
2023-05-21T00:39:39.146Z,15.21
2023-05-21T00:40:39.140Z,15.21
2023-05-21T00:41:39.160Z,15.21
2023-05-21T00:42:39.111Z,15.20
2023-05-21T00:43:39.170Z,15.17
2023-05-21T00:44:39.095Z,15.17
2023-05-21T00:45:39.272Z,15.12
2023-05-21T00:46:39.065Z,15.09
2023-05-21T00:47:39.086Z,15.06
2023-05-21T00:48:39.033Z,15.05
2023-05-21T00:49:39.069Z,15.03
2023-05-21T00:50:39.029Z,15.02
2023-05-21T00:51:39.017Z,15.02
2023-05-21T00:52:39.000Z,15.03
2023-05-21T00:53:39.026Z,15.05
2023-05-21T00:54:39.002Z,15.03
2023-05-21T00:55:38.965Z,15.03
2023-05-21T00:56:38.964Z,15.03
2023-05-21T00:57:38.948Z,15.02
2023-05-21T00:58:38.981Z,15.02
2023-05-21T00:59:38.939Z,15.02
2023-05-21T01:00:38.916Z,15.02
2023-05-21T01:01:38.938Z,15.02
2023-05-21T01:02:38.959Z,15.01
2023-05-21T01:03:39.013Z,15.02
2023-05-21T01:04:38.907Z,15.01
2023-05-21T01:05:38.870Z,15.01
2023-05-21T01:06:38.859Z,14.99
2023-05-21T01:07:38.984Z,14.99
2023-05-21T01:08:38.853Z,14.98
2023-05-21T01:09:38.847Z,14.95
2023-05-21T01:10:38.812Z,14.98
2023-05-21T01:11:38.848Z,14.98
2023-05-21T01:12:38.820Z,14.95
2023-05-21T01:13:38.859Z,14.95
2023-05-21T01:14:38.799Z,14.94
2023-05-21T01:15:38.773Z,14.93
2023-05-21T01:16:38.791Z,14.91
2023-05-21T01:17:38.811Z,14.91
2023-05-21T01:18:38.843Z,14.91
2023-05-21T01:19:38.778Z,14.93
2023-05-21T01:20:38.721Z,14.91
2023-05-21T01:21:38.729Z,14.90
2023-05-21T01:22:38.717Z,14.87
2023-05-21T01:23:38.677Z,14.87
2023-05-21T01:24:38.685Z,14.86
2023-05-21T01:25:38.783Z,14.84
2023-05-21T01:26:38.721Z,14.84
2023-05-21T01:27:38.633Z,14.81
2023-05-21T01:28:38.656Z,14.83
2023-05-21T01:29:38.658Z,14.81
2023-05-21T01:30:38.645Z,14.81
2023-05-21T01:31:38.606Z,14.80
2023-05-21T01:32:38.741Z,14.80
2023-05-21T01:33:38.667Z,14.78
2023-05-21T01:34:38.570Z,14.75
2023-05-21T01:35:38.716Z,14.75
2023-05-21T01:36:38.557Z,14.72
2023-05-21T01:37:38.534Z,14.71
2023-05-21T01:38:38.533Z,14.68
2023-05-21T01:39:38.533Z,14.67
2023-05-21T01:40:38.540Z,14.65
2023-05-21T01:41:38.520Z,14.62
2023-05-21T01:42:38.500Z,14.62
2023-05-21T01:43:38.494Z,14.60
2023-05-21T01:44:38.505Z,14.60
2023-05-21T01:45:38.528Z,14.56
2023-05-21T01:46:38.525Z,14.53
2023-05-21T01:47:38.519Z,14.52
2023-05-21T01:48:38.443Z,14.49
2023-05-21T01:49:38.458Z,14.49
2023-05-21T01:50:38.417Z,14.47
2023-05-21T01:51:38.407Z,14.46
2023-05-21T01:52:38.441Z,14.44
2023-05-21T01:53:38.400Z,14.44
2023-05-21T01:54:38.365Z,14.46
2023-05-21T01:55:38.688Z,14.46
2023-05-21T01:56:38.352Z,14.46
2023-05-21T01:57:38.341Z,14.46
2023-05-21T01:58:38.337Z,14.43
2023-05-21T01:59:38.335Z,14.43
2023-05-21T02:00:38.285Z,14.43
2023-05-21T02:01:38.316Z,14.38
2023-05-21T02:02:38.347Z,14.37
2023-05-21T02:03:38.423Z,14.38
2023-05-21T02:04:38.263Z,14.35
2023-05-21T02:05:38.430Z,14.34
2023-05-21T02:06:38.241Z,14.32
2023-05-21T02:07:38.259Z,14.29
2023-05-21T02:08:38.235Z,14.28
2023-05-21T02:09:38.214Z,14.29
2023-05-21T02:10:38.198Z,14.28
2023-05-21T02:11:38.180Z,14.28
2023-05-21T02:12:38.242Z,14.28
2023-05-21T02:13:38.168Z,14.28
2023-05-21T02:14:38.192Z,14.28
2023-05-21T02:15:38.398Z,14.29
2023-05-21T02:16:38.421Z,14.28
2023-05-21T02:17:38.163Z,14.28
2023-05-21T02:18:38.137Z,14.29
2023-05-21T02:19:38.119Z,14.28
2023-05-21T02:20:38.118Z,14.28
2023-05-21T02:21:38.112Z,14.25
2023-05-21T02:22:38.093Z,14.25
2023-05-21T02:23:38.086Z,14.25
2023-05-21T02:24:38.059Z,14.24
2023-05-21T02:25:38.435Z,14.25
2023-05-21T02:26:38.056Z,14.24
2023-05-21T02:27:38.035Z,14.20
2023-05-21T02:28:38.007Z,14.21
2023-05-21T02:29:38.008Z,14.21
2023-05-21T02:30:37.994Z,14.21
2023-05-21T02:31:38.007Z,14.21
2023-05-21T02:32:37.989Z,14.20
2023-05-21T02:33:38.025Z,14.17
2023-05-21T02:34:37.942Z,14.16
2023-05-21T02:35:38.141Z,14.14
2023-05-21T02:36:37.954Z,14.14
2023-05-21T02:37:37.930Z,14.17
2023-05-21T02:38:37.926Z,14.16
2023-05-21T02:39:37.914Z,14.14
2023-05-21T02:40:37.909Z,14.16
2023-05-21T02:41:37.892Z,14.16
2023-05-21T02:42:37.874Z,14.14
2023-05-21T02:43:37.925Z,14.14
2023-05-21T02:44:37.850Z,14.14
2023-05-21T02:45:38.242Z,14.13
2023-05-21T02:46:37.827Z,14.12
2023-05-21T02:47:37.890Z,14.10
2023-05-21T02:48:37.802Z,14.10
2023-05-21T02:49:37.817Z,14.10
2023-05-21T02:50:37.792Z,14.10
2023-05-21T02:51:37.783Z,14.12
2023-05-21T02:52:37.771Z,14.07
2023-05-21T02:53:37.762Z,14.06
2023-05-21T02:54:37.770Z,14.02
2023-05-21T02:55:38.054Z,13.99
2023-05-21T02:56:37.730Z,13.99
2023-05-21T02:57:37.715Z,13.96
2023-05-21T02:58:37.772Z,13.96
2023-05-21T02:59:37.708Z,13.96
2023-05-21T03:00:37.727Z,13.99
2023-05-21T03:01:37.726Z,13.95
2023-05-21T03:02:37.728Z,13.98
2023-05-21T03:03:37.782Z,13.95
2023-05-21T03:04:37.662Z,13.95
2023-05-21T03:05:38.006Z,13.91
2023-05-21T03:06:37.576Z,13.89
2023-05-21T03:07:37.570Z,13.89
2023-05-21T03:08:37.556Z,13.89
2023-05-21T03:09:37.542Z,13.89
2023-05-21T03:10:37.540Z,13.88
2023-05-21T03:11:37.510Z,13.88
2023-05-21T03:12:37.534Z,13.87
2023-05-21T03:13:37.560Z,13.87
2023-05-21T03:14:37.504Z,13.83
2023-05-21T03:15:37.843Z,13.81
2023-05-21T03:16:37.495Z,13.83
2023-05-21T03:17:37.492Z,13.83
2023-05-21T03:18:37.480Z,13.84
2023-05-21T03:19:37.451Z,13.83
2023-05-21T03:20:37.422Z,13.80
2023-05-21T03:21:37.423Z,13.79
2023-05-21T03:22:37.421Z,13.77
2023-05-21T03:23:37.395Z,13.77
2023-05-21T03:24:37.383Z,13.76
2023-05-21T03:25:37.580Z,13.76
2023-05-21T03:26:37.396Z,13.71
2023-05-21T03:27:37.356Z,13.73
2023-05-21T03:28:37.346Z,13.67
2023-05-21T03:29:37.327Z,13.65
2023-05-21T03:30:37.320Z,13.65
2023-05-21T03:31:37.357Z,13.63
2023-05-21T03:32:37.325Z,13.61
2023-05-21T03:33:37.292Z,13.61
2023-05-21T03:34:37.296Z,13.59
2023-05-21T03:35:37.593Z,13.58
2023-05-21T03:36:37.310Z,13.55
2023-05-21T03:37:37.268Z,13.52
2023-05-21T03:38:37.269Z,13.51
2023-05-21T03:39:37.253Z,13.49
2023-05-21T03:40:37.252Z,13.49
2023-05-21T03:41:37.238Z,13.51
2023-05-21T03:42:37.201Z,13.51
2023-05-21T03:43:37.216Z,13.52
2023-05-21T03:44:37.186Z,13.51
2023-05-21T03:45:37.572Z,13.52
2023-05-21T03:46:37.212Z,13.51
2023-05-21T03:47:37.138Z,13.54
2023-05-21T03:48:37.128Z,13.55
2023-05-21T03:49:37.162Z,13.55
2023-05-21T03:50:37.212Z,13.54
2023-05-21T03:51:37.104Z,13.52
2023-05-21T03:52:37.110Z,13.51
2023-05-21T03:53:37.103Z,13.47
2023-05-21T03:54:37.130Z,13.47
2023-05-21T03:55:37.316Z,13.47
2023-05-21T03:56:37.069Z,13.47
2023-05-21T03:57:37.054Z,13.51
2023-05-21T03:58:37.053Z,13.52
2023-05-21T03:59:37.047Z,13.52
2023-05-21T04:00:37.019Z,13.54
2023-05-21T04:01:37.054Z,13.54
2023-05-21T04:02:37.081Z,13.58
2023-05-21T04:03:40.016Z,13.56
2023-05-21T04:04:37.034Z,13.56
2023-05-21T04:05:37.211Z,13.58
2023-05-21T04:06:36.989Z,13.56
2023-05-21T04:07:36.945Z,13.56
2023-05-21T04:08:36.932Z,13.58
2023-05-21T04:09:36.955Z,13.59
2023-05-21T04:10:36.905Z,13.61
2023-05-21T04:11:36.905Z,13.63
2023-05-21T04:12:36.894Z,13.63
2023-05-21T04:13:36.881Z,13.63
2023-05-21T04:14:36.902Z,13.67
2023-05-21T04:15:37.106Z,13.67
2023-05-21T04:16:36.871Z,13.70
2023-05-21T04:17:36.859Z,13.71
2023-05-21T04:18:36.923Z,13.71
2023-05-21T04:19:36.994Z,13.69
2023-05-21T04:20:36.817Z,13.69
2023-05-21T04:21:36.829Z,13.67
2023-05-21T04:22:36.799Z,13.65
2023-05-21T04:23:36.830Z,13.65
2023-05-21T04:24:36.790Z,13.61
2023-05-21T04:25:37.004Z,13.65
2023-05-21T04:26:36.763Z,13.65
2023-05-21T04:27:36.778Z,13.67
2023-05-21T04:28:36.710Z,13.69
2023-05-21T04:29:36.707Z,13.70
2023-05-21T04:30:36.686Z,13.71
2023-05-21T04:31:36.853Z,13.74
2023-05-21T04:32:36.724Z,13.74
2023-05-21T04:33:36.666Z,13.76
2023-05-21T04:34:36.659Z,13.81
2023-05-21T04:35:37.003Z,13.83
2023-05-21T04:36:36.657Z,13.84
2023-05-21T04:37:36.642Z,13.83
2023-05-21T04:38:36.618Z,13.87
2023-05-21T04:39:36.632Z,13.84
2023-05-21T04:40:37.003Z,13.79
2023-05-21T04:41:36.611Z,13.76
2023-05-21T04:42:36.595Z,13.74
2023-05-21T04:43:36.566Z,13.74
2023-05-21T04:44:36.563Z,13.76
2023-05-21T04:45:36.781Z,13.79
2023-05-21T04:46:36.569Z,13.80
2023-05-21T04:47:36.547Z,13.83
2023-05-21T04:48:36.534Z,13.84
2023-05-21T04:49:36.512Z,13.88
2023-05-21T04:50:36.514Z,13.92
2023-05-21T04:51:36.489Z,13.95
2023-05-21T04:52:36.492Z,13.95
2023-05-21T04:53:36.459Z,13.96
2023-05-21T04:54:36.487Z,13.99
2023-05-21T04:55:36.701Z,13.98
2023-05-21T04:56:36.437Z,14.01
2023-05-21T04:57:36.456Z,14.02
2023-05-21T04:58:36.409Z,14.07
2023-05-21T04:59:36.430Z,14.07
2023-05-21T05:00:36.430Z,14.07
2023-05-21T05:01:36.388Z,14.10
2023-05-21T05:02:36.429Z,14.13
2023-05-21T05:03:36.398Z,14.13
2023-05-21T05:04:36.378Z,14.16
2023-05-21T05:05:36.544Z,14.17
2023-05-21T05:06:36.343Z,14.16
2023-05-21T05:07:36.316Z,14.14
2023-05-21T05:08:36.317Z,14.17
2023-05-21T05:09:36.314Z,14.17
2023-05-21T05:10:36.300Z,14.20
2023-05-21T05:11:36.309Z,14.21
2023-05-21T05:12:36.316Z,14.25
2023-05-21T05:13:36.266Z,14.25
2023-05-21T05:14:36.286Z,14.28
2023-05-21T05:15:36.542Z,14.29
2023-05-21T05:16:36.259Z,14.32
2023-05-21T05:17:36.255Z,14.37
2023-05-21T05:18:36.246Z,14.44
2023-05-21T05:19:36.208Z,14.46
2023-05-21T05:20:36.286Z,14.49
2023-05-21T05:21:36.170Z,14.50
2023-05-21T05:22:36.254Z,14.53
2023-05-21T05:23:36.210Z,14.56
2023-05-21T05:24:36.154Z,14.54
2023-05-21T05:25:36.240Z,14.60
2023-05-21T05:26:36.139Z,14.64
2023-05-21T05:27:38.390Z,14.68
2023-05-21T05:28:36.118Z,14.74
2023-05-21T05:29:36.121Z,14.83
2023-05-21T05:30:36.118Z,14.90
2023-05-21T05:31:36.071Z,14.93
2023-05-21T05:32:36.117Z,14.95
2023-05-21T05:33:36.059Z,14.98
2023-05-21T05:34:36.052Z,14.99
2023-05-21T05:35:36.183Z,15.05
2023-05-21T05:36:36.025Z,15.12
2023-05-21T05:37:36.017Z,15.19
2023-05-21T05:38:36.005Z,15.19
2023-05-21T05:39:35.979Z,15.24
2023-05-21T05:40:36.008Z,15.27
2023-05-21T05:41:35.991Z,15.33
2023-05-21T05:42:35.963Z,15.41
2023-05-21T05:43:35.967Z,15.46
2023-05-21T05:44:35.955Z,15.52
2023-05-21T05:45:36.124Z,15.57
2023-05-21T05:46:36.042Z,15.61
2023-05-21T05:47:35.951Z,15.67
2023-05-21T05:48:35.906Z,15.75
2023-05-21T05:49:35.922Z,15.82
2023-05-21T05:50:35.919Z,15.93
2023-05-21T05:51:35.890Z,16.01
2023-05-21T05:52:35.867Z,16.09
2023-05-21T05:53:35.832Z,16.18
2023-05-21T05:54:35.884Z,16.26
2023-05-21T05:55:35.972Z,16.41
2023-05-21T05:56:35.827Z,16.55
2023-05-21T05:57:35.809Z,16.74
2023-05-21T05:58:35.783Z,16.90
2023-05-21T05:59:35.790Z,17.08
2023-05-21T06:00:35.791Z,17.25
2023-05-21T06:01:35.789Z,17.36
2023-05-21T06:02:35.824Z,17.40
2023-05-21T06:03:35.979Z,17.47
2023-05-21T06:04:35.753Z,17.62
2023-05-21T06:05:36.040Z,17.85
2023-05-21T06:06:35.715Z,18.00
2023-05-21T06:07:35.710Z,17.95
2023-05-21T06:08:38.083Z,17.94
2023-05-21T06:09:35.685Z,18.04
2023-05-21T06:10:35.670Z,18.17
2023-05-21T06:11:35.645Z,18.29
2023-05-21T06:12:35.656Z,18.33
2023-05-21T06:13:35.662Z,18.39
2023-05-21T06:14:35.631Z,18.43
2023-05-21T06:15:35.725Z,18.47
2023-05-21T06:16:35.791Z,18.49
2023-05-21T06:17:35.623Z,18.40
2023-05-21T06:18:35.591Z,18.37
2023-05-21T06:19:35.590Z,18.34
2023-05-21T06:20:35.570Z,18.24
2023-05-21T06:21:35.551Z,18.33
2023-05-21T06:22:35.550Z,18.43
2023-05-21T06:23:35.538Z,18.55
2023-05-21T06:24:35.533Z,18.62
2023-05-21T06:25:35.881Z,18.77
2023-05-21T06:26:35.491Z,18.86
2023-05-21T06:27:35.511Z,18.99
2023-05-21T06:28:35.522Z,18.97
2023-05-21T06:29:35.468Z,18.95
2023-05-21T06:30:35.478Z,18.84
2023-05-21T06:31:35.454Z,18.83
2023-05-21T06:32:35.515Z,18.77
2023-05-21T06:33:35.522Z,18.72
2023-05-21T06:34:35.453Z,18.87
2023-05-21T06:35:35.681Z,19.13
2023-05-21T06:36:35.407Z,19.48
2023-05-21T06:37:35.448Z,19.75
2023-05-21T06:38:35.374Z,19.93
2023-05-21T06:39:35.373Z,19.95
2023-05-21T06:40:35.377Z,19.97
2023-05-21T06:41:35.359Z,19.78
2023-05-21T06:42:35.362Z,19.60
2023-05-21T06:43:35.329Z,19.55
2023-05-21T06:44:35.327Z,19.33
2023-05-21T06:45:35.502Z,19.29
2023-05-21T06:46:35.400Z,19.29
2023-05-21T06:47:35.545Z,19.32
2023-05-21T06:48:35.334Z,19.29
2023-05-21T06:49:35.277Z,19.13
2023-05-21T06:50:35.276Z,19.10
2023-05-21T06:51:35.246Z,18.87
2023-05-21T06:52:35.238Z,18.68
2023-05-21T06:53:35.235Z,18.50
2023-05-21T06:54:35.295Z,18.57
2023-05-21T06:55:35.423Z,18.68
2023-05-21T06:56:35.188Z,18.68
2023-05-21T06:57:35.195Z,18.80
2023-05-21T06:58:35.173Z,18.94
2023-05-21T06:59:35.154Z,19.10
2023-05-21T07:00:35.167Z,19.01
2023-05-21T07:01:35.245Z,18.80
2023-05-21T07:02:35.252Z,18.86
2023-05-21T07:03:35.174Z,18.94
2023-05-21T07:04:35.203Z,19.11
2023-05-21T07:05:35.476Z,19.18
2023-05-21T07:06:35.092Z,19.25
2023-05-21T07:07:35.066Z,19.31
2023-05-21T07:08:35.092Z,19.42
2023-05-21T07:09:35.059Z,19.46
2023-05-21T07:10:35.063Z,19.50
2023-05-21T07:11:35.022Z,19.65
2023-05-21T07:12:35.035Z,19.87
2023-05-21T07:13:35.028Z,20.09
2023-05-21T07:14:35.015Z,20.34
2023-05-21T07:15:35.275Z,20.35
2023-05-21T07:16:35.049Z,20.33
2023-05-21T07:17:35.079Z,20.50
2023-05-21T07:18:34.988Z,20.84
2023-05-21T07:19:34.978Z,20.99
2023-05-21T07:20:34.999Z,21.08
2023-05-21T07:21:34.946Z,21.19
2023-05-21T07:22:34.929Z,21.38
2023-05-21T07:23:34.968Z,21.44
2023-05-21T07:24:34.906Z,21.46
2023-05-21T07:25:35.023Z,21.46
2023-05-21T07:26:34.889Z,21.59
2023-05-21T07:27:34.892Z,21.44
2023-05-21T07:28:34.900Z,21.53
2023-05-21T07:29:34.848Z,21.38
2023-05-21T07:30:34.848Z,21.11
2023-05-21T07:31:34.896Z,20.84
2023-05-21T07:32:34.944Z,21.13
2023-05-21T07:33:34.848Z,21.42
2023-05-21T07:34:34.795Z,21.56
2023-05-21T07:35:35.088Z,21.26
2023-05-21T07:36:34.780Z,21.11
2023-05-21T07:37:34.876Z,21.30
2023-05-21T07:38:34.769Z,21.50
2023-05-21T07:39:34.769Z,21.35
2023-05-21T07:40:34.769Z,21.20
2023-05-21T07:41:34.735Z,21.38
2023-05-21T07:42:34.734Z,21.64
2023-05-21T07:43:34.706Z,21.92
2023-05-21T07:44:34.716Z,21.67
2023-05-21T07:45:34.959Z,21.63
2023-05-21T07:46:34.760Z,21.83
2023-05-21T07:47:35.676Z,21.66
2023-05-21T07:48:35.669Z,21.51
2023-05-21T07:49:35.609Z,21.44
2023-05-21T07:50:34.892Z,21.34
2023-05-21T07:51:35.268Z,21.21
2023-05-21T07:52:34.739Z,20.81
2023-05-21T07:53:34.748Z,20.95
2023-05-21T07:54:34.593Z,20.98
2023-05-21T07:55:34.722Z,21.06
2023-05-21T07:56:34.569Z,21.06
2023-05-21T07:57:34.641Z,21.14
2023-05-21T07:58:34.611Z,21.32
2023-05-21T07:59:34.570Z,21.42
2023-05-21T08:00:34.571Z,21.36
2023-05-21T08:01:34.536Z,21.38
2023-05-21T08:02:34.650Z,21.63
2023-05-21T08:03:34.655Z,21.72
2023-05-21T08:04:34.552Z,21.82
2023-05-21T08:05:34.606Z,22.01
2023-05-21T08:06:34.477Z,22.27
2023-05-21T08:07:34.464Z,22.43
2023-05-21T08:08:34.451Z,22.41
2023-05-21T08:09:34.491Z,22.41
2023-05-21T08:10:34.437Z,22.34
2023-05-21T08:11:34.462Z,22.14
2023-05-21T08:12:34.413Z,21.97
2023-05-21T08:13:35.564Z,21.50
2023-05-21T08:14:34.739Z,21.17
2023-05-21T08:15:34.718Z,20.98
2023-05-21T08:16:34.488Z,20.89
2023-05-21T08:17:34.453Z,20.98
2023-05-21T08:18:34.360Z,20.74
2023-05-21T08:19:34.503Z,20.77
2023-05-21T08:20:34.403Z,20.96
2023-05-21T08:21:34.325Z,21.17
2023-05-21T08:22:34.322Z,21.54
2023-05-21T08:23:34.351Z,21.63
2023-05-21T08:24:34.322Z,21.61
2023-05-21T08:25:34.385Z,21.85
2023-05-21T08:26:34.310Z,22.09
2023-05-21T08:27:34.326Z,22.22
2023-05-21T08:28:34.291Z,22.37
2023-05-21T08:29:34.235Z,22.35
2023-05-21T08:30:34.266Z,22.16
2023-05-21T08:31:34.268Z,21.95
2023-05-21T08:32:34.273Z,21.95
2023-05-21T08:33:34.293Z,21.79
2023-05-21T08:34:34.324Z,21.88
2023-05-21T08:35:34.248Z,21.83
2023-05-21T08:36:34.177Z,21.98
2023-05-21T08:37:34.163Z,22.09
2023-05-21T08:38:34.311Z,21.97
2023-05-21T08:39:34.368Z,21.94
2023-05-21T08:40:34.144Z,21.91
2023-05-21T08:41:34.302Z,21.94
2023-05-21T08:42:37.409Z,21.98
2023-05-21T08:43:34.556Z,21.74
2023-05-21T08:44:34.191Z,21.92
2023-05-21T08:45:34.245Z,22.27
2023-05-21T08:46:34.321Z,22.62
2023-05-21T08:47:34.191Z,22.93
2023-05-21T08:48:34.236Z,23.15
2023-05-21T08:49:34.292Z,23.35
2023-05-21T08:50:34.133Z,23.49
2023-05-21T08:51:34.040Z,23.55
2023-05-21T08:52:34.008Z,23.29
2023-05-21T08:53:34.176Z,23.12
2023-05-21T08:54:34.019Z,22.94
2023-05-21T08:55:34.052Z,22.99
2023-05-21T08:56:33.980Z,22.96
2023-05-21T08:57:34.132Z,23.08
2023-05-21T08:58:34.457Z,22.96
2023-05-21T08:59:33.929Z,22.99
2023-05-21T09:00:33.945Z,22.90
2023-05-21T09:01:35.563Z,22.72
2023-05-21T09:02:33.910Z,22.69
2023-05-21T09:03:33.932Z,22.68
2023-05-21T09:04:34.209Z,22.56
2023-05-21T09:05:33.908Z,22.69
2023-05-21T09:06:33.870Z,22.59
2023-05-21T09:07:33.850Z,22.65
2023-05-21T09:08:33.853Z,22.78
2023-05-21T09:09:33.848Z,22.96
2023-05-21T09:10:33.832Z,23.12
2023-05-21T09:11:33.819Z,23.24
2023-05-21T09:12:33.810Z,23.32
2023-05-21T09:13:33.813Z,23.27
2023-05-21T09:14:33.805Z,23.34
2023-05-21T09:15:33.807Z,23.38
2023-05-21T09:16:33.795Z,23.09
2023-05-21T09:17:33.771Z,23.14
2023-05-21T09:18:33.734Z,23.26
2023-05-21T09:19:33.769Z,23.58
2023-05-21T09:20:33.730Z,23.53
2023-05-21T09:21:33.702Z,23.58
2023-05-21T09:22:33.740Z,23.72
2023-05-21T09:23:33.707Z,23.76
2023-05-21T09:24:35.999Z,23.87
2023-05-21T09:25:33.705Z,23.95
2023-05-21T09:26:33.708Z,23.89
2023-05-21T09:27:33.651Z,23.85
2023-05-21T09:28:33.639Z,24.01
2023-05-21T09:29:33.610Z,24.13
2023-05-21T09:30:35.869Z,24.13
2023-05-21T09:31:33.631Z,24.27
2023-05-21T09:32:33.605Z,24.42
2023-05-21T09:33:33.606Z,24.52
2023-05-21T09:34:33.564Z,24.35
2023-05-21T09:35:33.785Z,24.41
2023-05-21T09:36:33.566Z,24.37
2023-05-21T09:37:33.560Z,24.45
2023-05-21T09:38:33.550Z,24.59
2023-05-21T09:39:33.540Z,24.63
2023-05-21T09:40:33.509Z,24.56
2023-05-21T09:41:33.554Z,24.19
2023-05-21T09:42:33.510Z,24.13
2023-05-21T09:43:33.487Z,24.14
2023-05-21T09:44:33.481Z,23.85
2023-05-21T09:45:33.455Z,23.85
2023-05-21T09:46:33.520Z,23.92
2023-05-21T09:47:33.480Z,24.02
2023-05-21T09:48:33.436Z,24.17
2023-05-21T09:49:33.480Z,24.29
2023-05-21T09:50:33.427Z,24.35
2023-05-21T09:51:33.434Z,24.27
2023-05-21T09:52:33.402Z,24.13
2023-05-21T09:53:33.422Z,24.13
2023-05-21T09:54:33.404Z,23.94
2023-05-21T09:55:33.363Z,23.95
2023-05-21T09:56:33.424Z,23.77
2023-05-21T09:57:33.403Z,23.61
2023-05-21T09:58:33.357Z,23.47
2023-05-21T09:59:33.343Z,23.52
2023-05-21T10:00:33.298Z,23.65
2023-05-21T10:01:39.886Z,23.68
2023-05-21T10:02:33.300Z,23.72
2023-05-21T10:03:33.295Z,23.89
2023-05-21T10:04:33.297Z,24.08
2023-05-21T10:05:33.280Z,24.01
2023-05-21T10:06:33.250Z,23.87
2023-05-21T10:07:33.247Z,23.82
2023-05-21T10:08:33.212Z,23.82
2023-05-21T10:09:33.241Z,23.77
2023-05-21T10:10:33.256Z,23.83
2023-05-21T10:11:33.208Z,23.75
2023-05-21T10:12:33.195Z,23.50
2023-05-21T10:13:33.188Z,23.24
2023-05-21T10:14:33.175Z,23.20
2023-05-21T10:15:33.184Z,23.26
2023-05-21T10:16:33.172Z,23.31
2023-05-21T10:17:33.374Z,23.31
2023-05-21T10:18:33.133Z,23.17
2023-05-21T10:19:33.159Z,22.97
2023-05-21T10:20:33.133Z,22.86
2023-05-21T10:21:33.095Z,22.83
2023-05-21T10:22:33.104Z,22.87
2023-05-21T10:23:33.102Z,22.97
2023-05-21T10:24:33.069Z,22.97
2023-05-21T10:25:33.060Z,23.11
2023-05-21T10:26:33.051Z,23.22
2023-05-21T10:27:33.133Z,23.32
2023-05-21T10:28:33.113Z,23.32
2023-05-21T10:29:33.073Z,23.34
2023-05-21T10:30:32.999Z,23.46
2023-05-21T10:31:33.028Z,23.39
2023-05-21T10:32:33.059Z,23.17
2023-05-21T10:33:33.042Z,23.14
2023-05-21T10:34:32.987Z,23.04
2023-05-21T10:35:32.991Z,23.17
2023-05-21T10:36:32.945Z,23.26
2023-05-21T10:37:32.939Z,23.31
2023-05-21T10:38:32.937Z,23.43
2023-05-21T10:39:32.943Z,23.45
2023-05-21T10:40:32.902Z,23.46
2023-05-21T10:41:32.880Z,23.61
2023-05-21T10:42:32.894Z,23.80
2023-05-21T10:43:32.887Z,24.08
2023-05-21T10:44:32.866Z,24.22
2023-05-21T10:45:32.956Z,24.27
2023-05-21T10:46:32.843Z,24.24
2023-05-21T10:47:32.880Z,23.90
2023-05-21T10:48:32.829Z,23.58
2023-05-21T10:49:32.844Z,23.38
2023-05-21T10:50:32.796Z,23.43
2023-05-21T10:51:32.808Z,23.58
2023-05-21T10:52:32.807Z,23.67
2023-05-21T10:53:32.773Z,23.79
2023-05-21T10:54:32.772Z,23.89
2023-05-21T10:55:32.791Z,24.14
2023-05-21T10:56:32.736Z,24.37
2023-05-21T10:57:32.749Z,24.56
2023-05-21T10:58:32.717Z,24.67
2023-05-21T10:59:32.696Z,24.57
2023-05-21T11:00:32.674Z,24.57
2023-05-21T11:01:32.724Z,24.47
2023-05-21T11:02:32.775Z,24.16
2023-05-21T11:03:35.004Z,23.85
2023-05-21T11:04:32.672Z,23.75
2023-05-21T11:05:32.649Z,23.60
2023-05-21T11:06:32.649Z,23.57
2023-05-21T11:07:32.627Z,23.49
2023-05-21T11:08:32.638Z,23.52
2023-05-21T11:09:32.625Z,23.61
2023-05-21T11:10:32.651Z,23.72
2023-05-21T11:11:32.606Z,23.60
2023-05-21T11:12:32.590Z,23.62
2023-05-21T11:13:32.564Z,23.72
2023-05-21T11:14:32.596Z,23.86
2023-05-21T11:15:32.565Z,23.92
2023-05-21T11:16:32.584Z,23.89
2023-05-21T11:17:32.612Z,23.79
2023-05-21T11:18:32.531Z,23.68
2023-05-21T11:19:34.042Z,23.80
2023-05-21T11:20:32.493Z,24.00
2023-05-21T11:21:32.486Z,24.02
2023-05-21T11:22:32.468Z,24.05
2023-05-21T11:23:32.459Z,24.02
2023-05-21T11:24:32.477Z,24.13
2023-05-21T11:25:32.458Z,23.85
2023-05-21T11:26:32.439Z,23.75
2023-05-21T11:27:32.448Z,23.80
2023-05-21T11:28:32.418Z,23.62
2023-05-21T11:29:32.423Z,23.62
2023-05-21T11:30:35.221Z,23.55
2023-05-21T11:31:32.456Z,23.42
2023-05-21T11:32:32.398Z,23.64
2023-05-21T11:33:32.354Z,23.92
2023-05-21T11:34:32.369Z,24.12
2023-05-21T11:35:32.348Z,24.29
2023-05-21T11:36:34.025Z,24.41
2023-05-21T11:37:32.345Z,24.63
2023-05-21T11:38:32.360Z,24.56
2023-05-21T11:39:32.324Z,24.50
2023-05-21T11:40:32.294Z,24.22
2023-05-21T11:41:32.286Z,23.97
2023-05-21T11:42:32.278Z,23.87
2023-05-21T11:43:32.272Z,24.04
2023-05-21T11:44:32.258Z,24.16
2023-05-21T11:45:32.435Z,24.41
2023-05-21T11:46:32.282Z,24.68
2023-05-21T11:47:32.323Z,24.79
2023-05-21T11:48:32.678Z,24.83
2023-05-21T11:49:32.204Z,24.87
2023-05-21T11:50:32.183Z,24.98
2023-05-21T11:51:32.195Z,24.71
2023-05-21T11:52:32.194Z,24.71
2023-05-21T11:53:32.152Z,24.49
2023-05-21T11:54:32.129Z,24.37
2023-05-21T11:55:32.145Z,24.37
2023-05-21T11:56:32.150Z,24.44
2023-05-21T11:57:32.174Z,24.50
2023-05-21T11:58:32.098Z,24.37
2023-05-21T11:59:32.092Z,23.97
2023-05-21T12:00:32.068Z,24.14
2023-05-21T12:01:32.075Z,24.41
2023-05-21T12:02:32.363Z,24.47
2023-05-21T12:03:32.124Z,24.47
2023-05-21T12:04:32.099Z,24.35
2023-05-21T12:05:32.068Z,24.32
2023-05-21T12:06:32.116Z,24.35
2023-05-21T12:07:32.021Z,24.26
2023-05-21T12:08:31.992Z,24.19
2023-05-21T12:09:31.986Z,24.26
2023-05-21T12:10:31.968Z,24.13
2023-05-21T12:11:31.996Z,23.98
2023-05-21T12:12:42.214Z,24.02
2023-05-21T12:13:31.967Z,24.20
2023-05-21T12:14:31.976Z,24.12
2023-05-21T12:15:32.005Z,24.16
2023-05-21T12:16:31.984Z,24.26
2023-05-21T12:17:32.029Z,24.35
2023-05-21T12:18:31.923Z,24.35
2023-05-21T12:19:32.019Z,24.39
2023-05-21T12:20:31.882Z,24.34
2023-05-21T12:21:31.900Z,24.45
2023-05-21T12:22:31.875Z,24.38
2023-05-21T12:23:31.964Z,24.35
2023-05-21T12:24:31.845Z,24.37
2023-05-21T12:25:31.869Z,24.34
2023-05-21T12:26:31.861Z,24.44
2023-05-21T12:27:33.444Z,24.50
2023-05-21T12:28:31.822Z,24.57
2023-05-21T12:29:31.801Z,24.71
2023-05-21T12:30:31.829Z,24.50
2023-05-21T12:31:31.799Z,24.57
2023-05-21T12:32:31.862Z,24.71
2023-05-21T12:33:31.782Z,24.79
2023-05-21T12:34:31.769Z,24.73
2023-05-21T12:35:31.805Z,24.82
2023-05-21T12:36:31.726Z,24.85
2023-05-21T12:37:31.742Z,24.83
2023-05-21T12:38:31.679Z,24.67
2023-05-21T12:39:31.771Z,24.63
2023-05-21T12:40:31.677Z,24.64
2023-05-21T12:41:31.661Z,24.69
2023-05-21T12:42:31.653Z,24.44
2023-05-21T12:43:31.663Z,24.42
2023-05-21T12:44:31.658Z,24.45
2023-05-21T12:45:31.626Z,24.53
2023-05-21T12:46:31.645Z,24.59
2023-05-21T12:47:31.690Z,24.39
2023-05-21T12:48:31.621Z,24.26
2023-05-21T12:49:31.575Z,24.26
2023-05-21T12:50:31.581Z,24.31
2023-05-21T12:51:31.573Z,24.41
2023-05-21T12:52:31.550Z,24.42